Lewistown, MT

5:45 AM MDT on July 26, 2016 (GMT -0600)
3/4 mile S of Lewistown | | Change Station

Elev 4189 ft 47.04 °N, 109.42 °W | Updated 4 seconds ago

Clear
Clear
53.7 °F
Feels Like 53.7 °F
N
2.0
Wind Variable Wind from WSW
Gusts 4.0 mph

Today
High -- | Low -- °F
--% Chance of Precip.
Yesterday
High -- | Low -- °F
Precip. -- in
Pressure 29.99 in
Visibility 10.0 miles
Clouds Clear
Dew Point 48 °F
Humidity 81%
Rainfall 0.01 in
Snow Depth Not available.
5:50 AM 8:57 PM
Waning Gibbous, 55% visible
METAR KLWT 261054Z AUTO 18005KT 10SM CLR 13/09 A3010 RMK AO2 SLP155 T01330094
Pressure 29.99 in
Visibility 10.0 miles
Clouds Clear
Dew Point 48 °F
Humidity 81%
Rainfall 0.01 in
Snow Depth Not available.
5:50 AM 8:57 PM
Waning Gibbous, 55% visible
METAR KLWT 261054Z AUTO 18005KT 10SM CLR 13/09 A3010 RMK AO2 SLP155 T01330094

10-Day Weather Forecast

Almanac

Astronomy

Jul. 26, 2016 Rise Set
Actual Time
Civil Twilight
Nautical Twilight
Astronomical Twilight
Moon
Length of Visible Light
Length of Day
Tomorrow will be .
, % of the Moon is Illuminated

Today's Extremes

State Highs State Lows

Community

WunderPhotos

Upload Photos

1,927,577 photos uploaded!

WunderBlog® & News

Nearby

Air Quality

  Air Quality AQ Index Pollutant
Not available.

Snow Depth

Station Depth Elevation

Earthquake Activity

City Distance Mag. Time & Date
Minimum magnitude displayed is 2.5.

Coastal Water Temperatures

Place Temperature

Stations

Nearby Weather Stations

Station Location Temp. Windchill Dew Point Humidity Wind Precip. Elev Updated Type
                   

Watches & Warnings

There are currently no watches in effect.